Time;durP1;ratioP1;P1;durP2;ratioP2;P2;SDS_P1;SDS_P2;PMS_P1;PMS_P2;Temp;Humidity;BMP_temperature;BMP_pressure;BME280_temperature;BME280_humidity;BME280_pressure;Samples;Min_cycle;Max_cycle;Signal;HPM_P1;HPM_P2
2023/05/28 00:02:33;;;;;;;4.57;2.40;;;;;;;15.79;69.09;101953.88;5027100;28;20149;-51
2023/05/28 00:05:00;;;;;;;10.00;2.90;;;;;;;15.76;69.31;101954.56;5028768;28;20046;-50
2023/05/28 00:07:33;;;;;;;6.95;2.95;;;;;;;15.72;69.36;101948.06;5028300;28;20046;-47
2023/05/28 00:10:00;;;;;;;4.32;2.53;;;;;;;15.70;69.50;101950.41;5028225;28;20439;-49
2023/05/28 00:12:27;;;;;;;10.43;3.38;;;;;;;15.60;69.79;101946.09;5027541;28;20049;-46
2023/05/28 00:14:53;;;;;;;10.20;3.15;;;;;;;15.51;70.01;101950.19;5028211;28;20046;-46
2023/05/28 00:17:21;;;;;;;12.10;2.80;;;;;;;15.46;70.50;101939.25;5010564;28;20132;-46
2023/05/28 00:19:48;;;;;;;7.03;2.70;;;;;;;15.52;70.38;101949.00;4997741;28;20046;-47
2023/05/28 00:22:15;;;;;;;7.47;2.72;;;;;;;15.48;70.53;101943.31;5028785;28;20045;-45
2023/05/28 00:24:43;;;;;;;14.57;2.88;;;;;;;15.46;70.56;101944.84;5031838;28;20095;-46
2023/05/28 00:27:10;;;;;;;7.15;2.15;;;;;;;15.44;70.72;101947.09;5031520;28;20474;-47
2023/05/28 00:29:37;;;;;;;7.63;2.47;;;;;;;15.46;70.72;101948.41;5031260;28;20046;-49
2023/05/28 00:32:04;;;;;;;9.50;2.33;;;;;;;15.42;70.74;101955.03;5030649;28;20052;-50
2023/05/28 00:34:31;;;;;;;9.60;2.35;;;;;;;15.38;70.77;101942.94;5032610;28;20049;-46
2023/05/28 00:36:57;;;;;;;10.07;2.92;;;;;;;15.29;70.87;101945.03;5030294;28;20045;-47
2023/05/28 00:39:24;;;;;;;10.07;2.95;;;;;;;15.18;71.43;101942.69;5031101;28;20041;-49
2023/05/28 00:42:04;;;;;;;8.27;2.45;;;;;;;15.20;71.31;101954.31;5021928;28;20475;-48
2023/05/28 00:44:31;;;;;;;10.35;2.28;;;;;;;15.21;71.23;101949.56;5031539;28;20522;-46
2023/05/28 00:46:59;;;;;;;6.85;2.80;;;;;;;15.25;71.55;101959.66;5031316;28;20053;-46
2023/05/28 00:49:27;;;;;;;11.52;2.75;;;;;;;15.25;71.60;101948.50;5031151;28;20406;-45
2023/05/28 00:51:56;;;;;;;12.73;2.80;;;;;;;15.27;71.56;101946.16;5029698;28;20045;-48
2023/05/28 00:54:23;;;;;;;5.80;1.88;;;;;;;15.36;71.51;101945.25;5029546;28;20083;-47
2023/05/28 00:56:53;;;;;;;8.73;2.20;;;;;;;15.40;71.36;101952.59;5031040;28;20053;-45
2023/05/28 00:59:21;;;;;;;12.65;3.88;;;;;;;15.31;71.39;101949.09;5030651;28;20049;-47
2023/05/28 01:01:48;;;;;;;7.97;2.35;;;;;;;15.20;71.33;101943.16;5029250;28;20156;-45
2023/05/28 01:04:16;;;;;;;6.53;2.08;;;;;;;15.22;71.35;101954.78;5030700;28;20049;-45
2023/05/28 01:06:44;;;;;;;11.63;2.03;;;;;;;15.26;71.34;101957.69;5031017;28;20111;-48
2023/05/28 01:09:13;;;;;;;16.50;3.30;;;;;;;15.32;71.22;101955.50;5029924;28;20442;-47
2023/05/28 01:11:42;;;;;;;14.93;3.00;;;;;;;15.36;70.94;101946.06;5029031;28;20048;-47
2023/05/28 01:14:10;;;;;;;9.82;2.85;;;;;;;15.35;70.78;101943.63;5030625;28;20534;-49
2023/05/28 01:16:37;;;;;;;12.98;2.42;;;;;;;15.36;70.84;101954.44;5030616;28;20108;-45
2023/05/28 01:19:08;;;;;;;11.02;2.88;;;;;;;15.33;70.72;101952.34;5030504;28;20041;-46
2023/05/28 01:21:41;;;;;;;10.43;1.95;;;;;;;15.19;70.46;101949.91;5029817;28;20119;-46
2023/05/28 01:24:10;;;;;;;9.82;2.20;;;;;;;15.07;70.27;101955.47;5030866;28;20045;-45
2023/05/28 01:26:37;;;;;;;7.97;1.75;;;;;;;14.98;70.43;101945.56;5026354;28;20042;-51
2023/05/28 01:29:17;;;;;;;16.65;2.33;;;;;;;14.86;70.34;101949.16;5022065;28;20057;-46
2023/05/28 01:31:45;;;;;;;16.67;3.55;;;;;;;14.82;70.28;101947.41;5029549;28;20049;-52
2023/05/28 01:34:14;;;;;;;7.80;1.95;;;;;;;14.80;70.40;101956.09;5029943;28;20517;-46
2023/05/28 01:36:57;;;;;;;8.85;3.03;;;;;;;14.87;70.30;101955.53;5030138;28;20049;-48
2023/05/28 01:39:27;;;;;;;20.90;4.05;;;;;;;14.91;70.24;101957.28;5030072;28;20033;-48
2023/05/28 01:41:54;;;;;;;10.18;3.17;;;;;;;14.94;70.13;101945.44;5019721;28;20057;-46
2023/05/28 01:44:23;;;;;;;12.05;3.10;;;;;;;15.02;70.24;101952.06;5021609;28;20048;-46
2023/05/28 01:46:53;;;;;;;7.22;2.15;;;;;;;15.06;70.13;101956.59;5029795;28;20511;-46
2023/05/28 01:49:21;;;;;;;9.95;2.25;;;;;;;15.08;70.28;101957.09;5029813;28;20051;-46
2023/05/28 01:51:51;;;;;;;12.52;3.20;;;;;;;15.11;70.28;101961.16;5030427;28;20053;-45
2023/05/28 01:54:20;;;;;;;11.13;4.32;;;;;;;15.11;70.00;101953.63;5029993;28;20060;-45
2023/05/28 01:56:47;;;;;;;11.38;2.78;;;;;;;15.11;70.12;101956.41;5029161;28;20088;-45
2023/05/28 01:59:16;;;;;;;10.38;2.70;;;;;;;15.14;70.25;101955.69;5029691;28;20399;-46
2023/05/28 02:01:42;;;;;;;10.40;2.75;;;;;;;15.14;69.94;101955.69;5028623;28;20111;-48
2023/05/28 02:04:12;;;;;;;8.88;2.53;;;;;;;15.06;70.20;101948.25;5029490;28;20052;-50
2023/05/28 02:06:43;;;;;;;13.23;2.60;;;;;;;14.93;70.18;101954.97;5030005;28;20037;-46
2023/05/28 02:09:10;;;;;;;10.43;1.90;;;;;;;14.88;70.15;101946.81;5029443;28;20115;-46
2023/05/28 02:11:37;;;;;;;9.50;3.20;;;;;;;14.91;70.03;101948.91;5028426;28;20160;-48
2023/05/28 02:14:04;;;;;;;11.98;2.58;;;;;;;14.88;69.88;101952.41;5029568;28;20049;-51
2023/05/28 02:16:31;;;;;;;9.35;3.30;;;;;;;14.78;69.85;101946.44;5029680;28;20509;-47
2023/05/28 02:18:59;;;;;;;13.18;2.45;;;;;;;14.73;70.19;101944.69;5028490;28;20050;-46
2023/05/28 02:21:26;;;;;;;8.18;2.20;;;;;;;14.67;70.10;101948.84;5029299;28;20145;-46
2023/05/28 02:23:53;;;;;;;16.25;3.42;;;;;;;14.63;70.13;101948.75;5029197;28;20123;-45
2023/05/28 02:26:20;;;;;;;15.88;2.63;;;;;;;14.64;70.07;101955.09;5028638;28;20460;-45
2023/05/28 02:28:47;;;;;;;8.45;2.00;;;;;;;14.63;70.06;101950.72;5028417;28;20458;-49
2023/05/28 02:31:14;;;;;;;12.20;2.65;;;;;;;14.62;70.13;101960.22;5029090;28;20055;-46
2023/05/28 02:33:42;;;;;;;14.07;3.00;;;;;;;14.59;70.26;101955.31;5029186;28;20056;-47
2023/05/28 02:36:12;;;;;;;17.60;3.70;;;;;;;14.49;70.21;101955.75;5028445;28;20071;-51
2023/05/28 02:38:40;;;;;;;13.90;3.25;;;;;;;14.42;70.12;101961.91;5029148;28;20060;-52
2023/05/28 02:41:07;;;;;;;14.23;3.47;;;;;;;14.36;70.14;101968.00;5039876;28;20095;-46
2023/05/28 02:43:34;;;;;;;12.23;2.38;;;;;;;14.30;70.31;101958.19;5028215;28;20041;-48
2023/05/28 02:46:01;;;;;;;19.52;3.40;;;;;;;14.23;70.35;101960.72;5025751;28;20045;-47
2023/05/28 02:48:28;;;;;;;11.75;2.70;;;;;;;14.18;70.44;101958.97;5011176;28;20053;-46
2023/05/28 02:50:55;;;;;;;19.63;3.88;;;;;;;14.15;70.40;101965.19;5029055;28;20038;-46
2023/05/28 02:53:23;;;;;;;9.10;3.47;;;;;;;14.21;70.41;101954.69;5028317;28;20042;-51
2023/05/28 02:55:51;;;;;;;14.30;2.50;;;;;;;14.25;70.21;101970.34;5029263;28;20053;-47
2023/05/28 02:58:20;;;;;;;8.80;2.58;;;;;;;14.31;70.03;101960.69;5027706;28;20040;-50
2023/05/28 03:00:47;;;;;;;9.10;2.75;;;;;;;14.35;70.06;101958.03;5103369;22;20053;-46
2023/05/28 03:03:14;;;;;;;16.02;2.83;;;;;;;14.33;69.99;101957.53;5031885;22;20111;-46
2023/05/28 03:05:42;;;;;;;12.07;3.58;;;;;;;14.30;70.08;101966.53;5028457;28;20049;-47
2023/05/28 03:08:09;;;;;;;12.88;3.40;;;;;;;14.20;70.15;101965.00;5026756;28;20037;-45
2023/05/28 03:10:36;;;;;;;21.98;4.68;;;;;;;14.15;70.03;101964.38;5027311;28;20053;-46
2023/05/28 03:13:03;;;;;;;20.90;5.00;;;;;;;14.07;70.06;101970.84;5015069;28;20049;-46
2023/05/28 03:15:31;;;;;;;15.18;3.15;;;;;;;14.06;69.92;101972.00;5015203;28;20137;-50
2023/05/28 03:17:58;;;;;;;16.23;2.90;;;;;;;14.04;69.83;101973.16;5028049;28;20037;-50
2023/05/28 03:20:25;;;;;;;13.57;2.60;;;;;;;14.02;70.16;101974.66;5028506;28;20483;-46
2023/05/28 03:22:58;;;;;;;15.40;2.75;;;;;;;14.03;70.15;101981.84;5028598;28;20045;-49
2023/05/28 03:25:26;;;;;;;9.02;2.92;;;;;;;14.02;69.82;101975.47;5016076;28;20045;-46
2023/05/28 03:27:53;;;;;;;15.07;3.05;;;;;;;14.02;69.66;101972.69;5028576;28;20049;-45
2023/05/28 03:30:21;;;;;;;12.73;2.70;;;;;;;13.99;69.50;101970.56;5028296;28;20053;-46
2023/05/28 03:32:49;;;;;;;10.27;2.35;;;;;;;13.97;69.19;101964.53;5026816;28;20053;-49
2023/05/28 03:35:18;;;;;;;9.10;3.00;;;;;;;13.99;69.03;101969.75;5028511;28;20045;-45
2023/05/28 03:37:46;;;;;;;8.48;2.38;;;;;;;13.97;68.88;101960.91;5021709;28;20053;-45
2023/05/28 03:40:13;;;;;;;19.55;2.83;;;;;;;13.94;68.54;101969.94;5028040;28;20042;-46
2023/05/28 03:42:40;;;;;;;11.52;3.35;;;;;;;13.93;68.51;101971.09;5027558;28;20457;-46
2023/05/28 03:45:08;;;;;;;8.85;2.58;;;;;;;13.92;68.60;101970.31;5028481;28;20041;-48
2023/05/28 03:47:35;;;;;;;8.02;3.05;;;;;;;13.88;68.24;101968.50;5026793;28;20391;-46
2023/05/28 03:50:04;;;;;;;9.45;3.00;;;;;;;13.88;67.68;101977.69;5028292;28;20045;-46
2023/05/28 03:52:32;;;;;;;9.25;3.05;;;;;;;13.87;67.74;101984.38;5028234;28;20075;-48
2023/05/28 03:54:59;;;;;;;10.25;2.80;;;;;;;13.88;67.37;101988.00;5028546;28;20048;-47
2023/05/28 03:57:26;;;;;;;7.45;2.22;;;;;;;13.90;67.13;101992.06;5031654;28;20394;-46
2023/05/28 03:59:55;;;;;;;6.25;2.05;;;;;;;13.90;66.71;101989.28;5029058;28;20095;-46
2023/05/28 04:02:25;;;;;;;10.10;1.95;;;;;;;13.90;66.74;102003.22;5030791;28;20099;-46
2023/05/28 04:04:53;;;;;;;9.65;2.33;;;;;;;13.91;66.36;101996.50;5032033;28;20060;-46
2023/05/28 04:07:20;;;;;;;13.52;2.72;;;;;;;13.92;66.35;101997.31;5031947;28;20645;-45
2023/05/28 04:09:47;;;;;;;11.27;3.40;;;;;;;13.92;66.15;101998.13;5031734;28;20052;-47
2023/05/28 04:12:14;;;;;;;8.75;2.15;;;;;;;13.90;65.98;101992.06;5025233;28;20042;-45
2023/05/28 04:14:41;;;;;;;12.32;2.63;;;;;;;13.89;66.25;101993.25;5024877;28;20099;-48
2023/05/28 04:17:11;;;;;;;8.23;1.98;;;;;;;13.88;66.12;101991.59;5031322;28;20040;-45
2023/05/28 04:19:39;;;;;;;13.38;2.90;;;;;;;13.90;65.92;101994.84;5031949;28;20140;-46
2023/05/28 04:22:06;;;;;;;14.75;3.25;;;;;;;13.90;65.86;101989.28;5031847;28;20056;-46
2023/05/28 04:24:33;;;;;;;13.70;2.83;;;;;;;13.87;65.31;101995.53;5030984;28;20045;-48
2023/05/28 04:27:00;;;;;;;10.18;2.08;;;;;;;13.84;65.54;101989.84;5031634;28;20057;-48
2023/05/28 04:29:30;;;;;;;11.30;2.67;;;;;;;13.79;65.51;101990.03;5031854;28;20048;-47
2023/05/28 04:32:00;;;;;;;7.50;2.15;;;;;;;13.78;65.62;101989.22;5031748;28;20061;-52
2023/05/28 04:34:27;;;;;;;15.55;2.65;;;;;;;13.77;65.29;101995.91;5030758;28;20426;-47
2023/05/28 04:36:56;;;;;;;13.60;2.85;;;;;;;13.78;65.20;101994.78;5031937;28;20038;-46
2023/05/28 04:39:24;;;;;;;11.20;2.83;;;;;;;13.77;65.30;101995.09;5031583;28;20052;-46
2023/05/28 04:41:53;;;;;;;13.55;3.05;;;;;;;13.71;65.25;102002.84;5020601;28;20053;-46
2023/05/28 04:44:25;;;;;;;10.57;3.33;;;;;;;13.64;65.06;102002.53;5031372;28;20085;-45
2023/05/28 04:46:52;;;;;;;10.48;1.90;;;;;;;13.62;65.02;102012.38;5031499;28;20064;-45
2023/05/28 04:49:19;;;;;;;8.98;3.17;;;;;;;13.63;64.86;102016.81;5031065;28;20132;-47
2023/05/28 04:51:46;;;;;;;6.65;2.83;;;;;;;13.63;64.65;102022.38;5030275;28;20076;-48
2023/05/28 04:54:13;;;;;;;16.02;3.05;;;;;;;13.61;64.47;102017.13;5030451;28;20049;-46
2023/05/28 04:56:39;;;;;;;8.50;2.72;;;;;;;13.58;64.29;102028.13;5013598;28;20045;-47
2023/05/28 04:59:09;;;;;;;9.20;2.53;;;;;;;13.53;64.06;102031.88;5031023;28;20043;-45
2023/05/28 05:01:38;;;;;;;12.90;2.65;;;;;;;13.50;64.10;102035.38;5030643;28;20041;-47
2023/05/28 05:04:06;;;;;;;9.55;2.50;;;;;;;13.50;64.07;102045.66;5031469;28;20601;-48
2023/05/28 05:06:33;;;;;;;12.82;2.47;;;;;;;13.47;63.80;102038.81;5031182;28;20487;-48
2023/05/28 05:09:00;;;;;;;10.90;3.13;;;;;;;13.47;64.00;102040.78;5017833;28;20053;-46
2023/05/28 05:11:27;;;;;;;10.65;2.50;;;;;;;13.54;63.75;102047.44;5012733;28;20037;-46
2023/05/28 05:13:54;;;;;;;10.80;3.92;;;;;;;13.57;63.84;102046.78;5018250;28;20049;-51
2023/05/28 05:16:20;;;;;;;12.15;2.53;;;;;;;13.59;63.53;102052.81;5030486;28;20490;-46
2023/05/28 05:18:47;;;;;;;10.50;3.17;;;;;;;13.55;63.41;102051.88;5030662;28;20041;-50
2023/05/28 05:21:14;;;;;;;7.50;2.72;;;;;;;13.55;63.52;102049.09;5029374;28;20580;-47
2023/05/28 05:23:41;;;;;;;11.82;2.38;;;;;;;13.57;63.25;102046.78;5030458;28;20497;-48
2023/05/28 05:26:16;;;;;;;17.55;3.22;;;;;;;13.57;62.82;102052.34;5029610;28;20438;-49
2023/05/28 05:28:44;;;;;;;6.07;3.33;;;;;;;13.56;62.70;102047.91;5030510;28;20037;-46
2023/05/28 05:31:13;;;;;;;8.93;2.58;;;;;;;13.49;62.73;102050.41;5030243;28;20106;-50
2023/05/28 05:33:41;;;;;;;7.85;2.03;;;;;;;13.46;62.54;102051.06;5012886;28;20522;-49
2023/05/28 05:36:09;;;;;;;13.20;2.05;;;;;;;13.46;62.48;102056.66;5030162;28;20081;-46
2023/05/28 05:38:37;;;;;;;9.00;2.83;;;;;;;13.50;62.35;102045.66;5030613;28;20038;-48
2023/05/28 05:41:04;;;;;;;9.02;2.28;;;;;;;13.53;62.47;102047.78;5029594;28;20410;-46
2023/05/28 05:43:31;;;;;;;13.90;2.30;;;;;;;13.55;62.29;102051.06;5029901;28;20041;-45
2023/05/28 05:45:58;;;;;;;14.98;3.65;;;;;;;13.58;62.33;102048.41;5030005;28;20042;-47
2023/05/28 05:48:28;;;;;;;11.15;2.35;;;;;;;13.63;62.20;102050.19;5029876;28;20450;-46
2023/05/28 05:50:55;;;;;;;14.85;2.58;;;;;;;13.65;62.12;102053.47;5028973;28;20042;-47
2023/05/28 05:53:23;;;;;;;16.52;2.50;;;;;;;13.67;61.91;102057.53;5029315;28;20046;-46
2023/05/28 05:55:50;;;;;;;11.30;2.30;;;;;;;13.73;61.77;102060.94;5029522;28;20254;-46
2023/05/28 05:58:18;;;;;;;13.73;2.30;;;;;;;13.70;61.68;102051.31;5029425;28;20386;-52
2023/05/28 06:00:45;;;;;;;13.07;3.55;;;;;;;13.68;61.71;102063.94;5028358;28;20045;-46
2023/05/28 06:03:12;;;;;;;10.63;2.55;;;;;;;13.69;61.84;102060.78;5028714;28;20049;-47
2023/05/28 06:05:38;;;;;;;7.95;3.38;;;;;;;13.74;61.56;102057.81;5029779;28;20049;-47
2023/05/28 06:08:05;;;;;;;12.38;2.50;;;;;;;13.84;61.56;102057.47;5029679;28;20053;-46
2023/05/28 06:10:32;;;;;;;16.65;3.45;;;;;;;13.95;61.42;102063.47;5029459;28;20442;-46
2023/05/28 06:13:02;;;;;;;10.50;2.20;;;;;;;14.08;61.38;102056.84;5017537;28;20053;-51
2023/05/28 06:15:31;;;;;;;10.88;2.38;;;;;;;14.25;61.12;102061.47;5027919;28;20049;-46
2023/05/28 06:17:58;;;;;;;8.05;2.05;;;;;;;14.40;61.01;102063.69;5029369;28;20453;-46
2023/05/28 06:20:25;;;;;;;8.68;2.85;;;;;;;14.59;60.73;102066.81;5028459;28;20033;-45
2023/05/28 06:22:52;;;;;;;7.25;2.08;;;;;;;14.71;60.37;102055.75;5029370;28;20091;-46
2023/05/28 06:25:21;;;;;;;9.98;2.38;;;;;;;14.78;60.39;102075.50;4998239;28;20163;-46
2023/05/28 06:27:49;;;;;;;10.13;2.20;;;;;;;14.87;60.18;102059.53;5011442;28;20076;-49
2023/05/28 06:30:16;;;;;;;11.05;3.42;;;;;;;14.88;59.81;102063.94;5022771;28;20053;-46
2023/05/28 06:32:43;;;;;;;10.88;2.42;;;;;;;14.87;59.77;102073.47;5023756;28;20041;-46
2023/05/28 06:35:10;;;;;;;12.93;4.07;;;;;;;14.85;59.62;102067.41;5029268;28;20057;-46
2023/05/28 06:37:37;;;;;;;8.02;2.60;;;;;;;14.78;59.61;102069.94;5029005;28;20129;-46
2023/05/28 06:40:07;;;;;;;13.75;3.28;;;;;;;14.74;59.67;102069.00;5029327;28;20202;-52
2023/05/28 06:42:34;;;;;;;12.93;2.25;;;;;;;14.69;59.63;102072.00;5028825;28;20045;-46
2023/05/28 06:45:01;;;;;;;14.48;4.10;;;;;;;14.72;59.41;102076.88;5028910;28;20096;-46
2023/05/28 06:47:28;;;;;;;10.25;3.05;;;;;;;14.81;59.16;102082.38;5028723;28;20494;-53
2023/05/28 06:49:55;;;;;;;11.57;2.30;;;;;;;14.90;59.16;102086.72;5027585;28;20041;-45
2023/05/28 06:52:23;;;;;;;16.30;3.20;;;;;;;14.98;58.76;102080.25;5028746;28;20053;-45
2023/05/28 06:54:50;;;;;;;14.45;2.90;;;;;;;14.97;58.38;102078.63;5028692;28;20068;-46
2023/05/28 06:57:17;;;;;;;12.43;2.85;;;;;;;14.99;58.35;102076.28;5029059;28;20045;-46
2023/05/28 06:59:44;;;;;;;14.00;2.92;;;;;;;15.08;58.39;102077.03;5011214;28;20033;-46
2023/05/28 07:02:10;;;;;;;7.03;2.35;;;;;;;15.14;58.08;102077.66;5028393;28;20084;-54
2023/05/28 07:04:38;;;;;;;11.38;3.28;;;;;;;15.11;57.69;102084.72;5028746;28;20045;-45
2023/05/28 07:07:05;;;;;;;10.82;2.72;;;;;;;15.04;57.64;102078.88;5027756;28;20509;-47
2023/05/28 07:09:32;;;;;;;8.23;2.42;;;;;;;15.10;57.48;102083.09;5028949;28;20049;-49
2023/05/28 07:11:59;;;;;;;14.82;2.92;;;;;;;15.18;57.51;102075.78;5023272;28;20050;-46
2023/05/28 07:14:26;;;;;;;11.27;2.40;;;;;;;15.24;57.51;102083.59;5020244;28;20513;-46
2023/05/28 07:16:53;;;;;;;11.43;2.97;;;;;;;15.27;57.21;102077.31;5028756;28;20050;-46
2023/05/28 07:19:20;;;;;;;12.77;3.35;;;;;;;15.22;57.30;102090.69;5029182;28;20149;-47
2023/05/28 07:21:47;;;;;;;13.10;2.92;;;;;;;15.15;57.28;102084.84;5028649;28;20064;-46
2023/05/28 07:24:14;;;;;;;10.07;2.65;;;;;;;15.05;57.12;102094.47;5028114;28;20140;-46
2023/05/28 07:26:41;;;;;;;10.45;2.83;;;;;;;14.95;57.06;102094.06;5028428;28;20053;-51
2023/05/28 07:29:08;;;;;;;11.25;2.28;;;;;;;14.86;56.72;102096.09;5028851;28;20045;-47
2023/05/28 07:31:38;;;;;;;17.17;3.53;;;;;;;14.78;56.78;102102.56;5030778;28;20048;-46
2023/05/28 07:34:05;;;;;;;11.00;1.98;;;;;;;14.75;56.86;102101.28;5032808;28;20073;-45
2023/05/28 07:36:32;;;;;;;9.40;2.85;;;;;;;14.79;56.50;102109.78;5032489;28;20622;-46
2023/05/28 07:38:59;;;;;;;13.15;2.70;;;;;;;14.84;56.25;102093.66;5032743;28;20045;-46
2023/05/28 07:41:26;;;;;;;14.25;3.60;;;;;;;14.93;56.24;102105.53;5031147;28;20034;-48
2023/05/28 07:43:53;;;;;;;11.55;3.35;;;;;;;15.03;56.32;102098.75;5032013;28;20046;-48
2023/05/28 07:46:21;;;;;;;16.58;2.75;;;;;;;15.13;56.39;102101.94;5032255;28;20068;-48
2023/05/28 07:48:49;;;;;;;12.05;2.63;;;;;;;15.33;56.02;102102.22;5032474;28;20052;-47
2023/05/28 07:51:17;;;;;;;17.20;3.67;;;;;;;15.37;55.51;102103.97;5032404;28;20042;-46
2023/05/28 07:53:44;;;;;;;12.45;2.22;;;;;;;15.43;55.35;102099.00;5032119;28;20049;-51
2023/05/28 07:56:11;;;;;;;12.23;2.90;;;;;;;15.57;55.17;102102.28;5014461;28;20403;-46
2023/05/28 07:58:38;;;;;;;10.57;4.25;;;;;;;15.58;54.86;102112.31;5013784;28;20131;-47
2023/05/28 08:01:09;;;;;;;7.40;2.17;;;;;;;15.61;55.00;102111.63;5032353;28;20041;-47
2023/05/28 08:03:36;;;;;;;18.30;3.97;;;;;;;15.69;54.39;102110.72;5031903;28;20057;-46
2023/05/28 08:06:06;;;;;;;9.10;2.35;;;;;;;15.80;54.29;102117.47;5031692;28;20087;-48
2023/05/28 08:08:32;;;;;;;10.15;2.65;;;;;;;16.04;54.08;102122.28;5031931;28;20328;-51
2023/05/28 08:10:59;;;;;;;15.38;2.97;;;;;;;16.23;53.80;102123.28;5031365;28;20045;-46
2023/05/28 08:13:26;;;;;;;12.45;3.28;;;;;;;16.51;53.67;102120.59;5016283;28;20436;-50
2023/05/28 08:15:53;;;;;;;14.15;2.47;;;;;;;16.88;52.96;102121.34;5026527;28;20056;-45
2023/05/28 08:18:21;;;;;;;10.77;2.35;;;;;;;16.93;52.37;102110.72;5031576;28;20057;-46
2023/05/28 08:20:47;;;;;;;11.05;2.42;;;;;;;16.98;52.28;102116.06;5031389;28;20080;-46
2023/05/28 08:23:15;;;;;;;12.88;2.25;;;;;;;17.07;51.78;102113.13;5031586;28;20442;-46
2023/05/28 08:25:41;;;;;;;15.20;2.90;;;;;;;17.09;51.37;102113.56;5031587;28;20510;-46
2023/05/28 08:28:09;;;;;;;8.70;2.88;;;;;;;17.01;51.11;102120.13;5031706;28;20514;-46
2023/05/28 08:30:36;;;;;;;10.15;2.42;;;;;;;16.90;51.04;102117.03;5031304;28;20406;-45
2023/05/28 08:33:03;;;;;;;13.38;3.13;;;;;;;16.85;51.49;102111.69;5018725;28;20515;-47
2023/05/28 08:35:30;;;;;;;8.90;2.58;;;;;;;16.85;51.52;102108.88;5031200;28;20041;-46
2023/05/28 08:37:57;;;;;;;13.20;2.30;;;;;;;16.79;51.25;102124.28;5031100;28;20502;-51
2023/05/28 08:40:25;;;;;;;20.80;4.63;;;;;;;16.76;51.03;102111.00;5030918;28;20034;-46
2023/05/28 08:42:52;;;;;;;14.13;2.83;;;;;;;16.85;50.85;102113.66;5029980;28;20045;-46
2023/05/28 08:45:19;;;;;;;7.90;2.35;;;;;;;16.95;50.61;102118.75;5031035;28;20123;-46
2023/05/28 08:47:48;;;;;;;9.40;2.67;;;;;;;17.09;50.31;102113.56;5031062;28;20064;-46
2023/05/28 08:50:16;;;;;;;7.68;2.30;;;;;;;17.36;50.37;102115.56;5030473;28;20060;-53
2023/05/28 08:52:45;;;;;;;12.73;2.28;;;;;;;17.64;49.58;102118.31;5012796;28;20057;-45
2023/05/28 08:55:11;;;;;;;11.35;2.45;;;;;;;17.88;49.18;102117.34;5027193;28;20559;-46
2023/05/28 08:57:38;;;;;;;7.30;2.22;;;;;;;17.99;48.93;102127.66;5030700;28;20072;-46
2023/05/28 09:00:08;;;;;;;11.77;2.72;;;;;;;18.03;48.56;102122.94;5030991;28;20042;-46
2023/05/28 09:02:34;;;;;;;11.95;2.13;;;;;;;18.02;48.50;102117.72;5030467;28;20051;-48
2023/05/28 09:05:03;;;;;;;8.13;2.30;;;;;;;18.13;48.33;102116.00;5030917;28;20057;-47
2023/05/28 09:07:30;;;;;;;9.45;2.78;;;;;;;18.41;48.31;102121.44;5030110;28;20041;-46
2023/05/28 09:09:57;;;;;;;10.75;3.15;;;;;;;18.67;47.72;102116.88;5029803;28;20145;-52
2023/05/28 09:12:24;;;;;;;15.48;2.63;;;;;;;18.57;47.48;102117.47;5026045;28;20044;-44
2023/05/28 09:14:53;;;;;;;12.30;2.95;;;;;;;18.63;47.50;102115.19;5022551;28;20069;-44
2023/05/28 09:17:33;;;;;;;8.55;2.78;;;;;;;18.92;47.29;102120.22;5030510;28;20081;-43
2023/05/28 09:20:00;;;;;;;8.68;2.88;;;;;;;19.32;46.25;102129.09;5030430;28;20503;-43
2023/05/28 09:22:27;;;;;;;7.60;2.65;;;;;;;19.28;45.51;102130.19;5029717;28;20061;-44
2023/05/28 09:24:55;;;;;;;12.32;2.92;;;;;;;19.25;46.06;102120.50;5030502;28;20053;-44
2023/05/28 09:27:23;;;;;;;9.55;2.10;;;;;;;19.36;45.56;102117.91;5012935;28;20454;-46
2023/05/28 09:29:51;;;;;;;8.75;2.38;;;;;;;19.35;45.23;102117.09;5029920;28;20566;-44
2023/05/28 09:32:20;;;;;;;7.80;2.20;;;;;;;20.11;45.54;102106.03;5030293;28;20080;-45
2023/05/28 09:34:50;;;;;;;14.57;2.90;;;;;;;20.51;44.39;102109.09;5030220;28;20041;-44
2023/05/28 09:37:18;;;;;;;10.45;2.40;;;;;;;20.26;43.57;102102.28;5030228;28;20056;-46
2023/05/28 09:39:44;;;;;;;13.50;3.00;;;;;;;19.87;44.08;102110.03;5028536;28;20053;-44
2023/05/28 09:42:13;;;;;;;12.95;2.70;;;;;;;19.55;44.09;102112.28;5021846;28;20041;-51
2023/05/28 09:44:40;;;;;;;10.80;2.63;;;;;;;19.55;44.53;102115.09;5030152;28;20069;-52
2023/05/28 09:47:15;;;;;;;9.50;2.38;;;;;;;19.56;44.21;102113.09;5029912;28;20459;-52
2023/05/28 09:49:45;;;;;;;9.43;2.30;;;;;;;19.65;44.07;102119.28;5029648;28;20056;-48
2023/05/28 09:52:20;;;;;;;10.23;3.88;;;;;;;19.66;43.77;102112.47;5029862;28;20045;-47
2023/05/28 09:54:58;;;;;;;9.60;2.92;;;;;;;19.64;43.77;102120.47;5029902;28;20045;-49
2023/05/28 09:57:29;;;;;;;9.52;2.70;;;;;;;19.65;43.51;102117.28;5004725;28;20033;-46
2023/05/28 09:59:56;;;;;;;5.20;2.10;;;;;;;20.46;43.24;102106.63;5029763;28;20045;-45
2023/05/28 10:02:58;;;;;;;14.43;3.03;;;;;;;21.16;41.89;102123.66;5017875;28;20049;-47
2023/05/28 10:05:31;;;;;;;13.15;2.85;;;;;;;20.69;42.24;102129.84;5029529;28;20053;-47
2023/05/28 10:08:00;;;;;;;10.02;3.20;;;;;;;20.24;42.28;102113.09;5030015;28;20049;-44
2023/05/28 10:10:31;;;;;;;15.43;3.10;;;;;;;19.97;42.69;102117.84;5027680;28;20056;-45
2023/05/28 10:13:00;;;;;;;15.45;4.07;;;;;;;19.71;42.85;102112.16;5028711;28;20145;-46
2023/05/28 10:15:27;;;;;;;14.85;3.22;;;;;;;19.71;43.29;102115.81;5028853;28;20045;-47
2023/05/28 10:17:55;;;;;;;11.63;2.65;;;;;;;19.87;42.75;102108.06;5028439;28;20053;-47
2023/05/28 10:20:23;;;;;;;11.63;3.83;;;;;;;19.93;42.86;102112.19;5029363;28;20053;-47
2023/05/28 10:22:50;;;;;;;15.05;3.22;;;;;;;19.91;42.80;102117.34;5029860;28;20056;-46
2023/05/28 10:25:18;;;;;;;9.50;2.88;;;;;;;20.13;42.78;102103.63;5029595;28;20040;-47
2023/05/28 10:27:48;;;;;;;10.15;3.35;;;;;;;20.63;42.47;102115.28;5016052;28;20496;-45
2023/05/28 10:30:32;;;;;;;13.20;3.00;;;;;;;20.56;41.99;102112.41;5023914;28;20049;-44
2023/05/28 10:32:59;;;;;;;11.32;2.80;;;;;;;20.49;41.81;102112.28;5024737;28;20057;-48
2023/05/28 10:35:26;;;;;;;10.90;2.65;;;;;;;20.80;40.89;102110.28;5029595;28;20056;-44
2023/05/28 10:38:07;;;;;;;12.95;2.33;;;;;;;20.74;41.65;102125.88;5027903;28;20072;-50
2023/05/28 10:40:35;;;;;;;8.93;2.25;;;;;;;20.55;41.24;102124.00;5022227;28;20038;-49
2023/05/28 10:43:02;;;;;;;9.88;2.63;;;;;;;20.37;41.54;102122.94;5027521;28;20136;-44
2023/05/28 10:45:37;;;;;;;10.10;2.45;;;;;;;20.52;41.30;102108.69;5028704;28;20034;-46
2023/05/28 10:48:05;;;;;;;9.27;2.50;;;;;;;20.53;41.10;102117.97;5017012;28;20243;-44
2023/05/28 10:50:57;;;;;;;12.18;3.30;;;;;;;20.30;41.31;102108.78;5028809;28;20451;-44
2023/05/28 10:53:26;;;;;;;12.45;2.72;;;;;;;20.20;41.38;102098.94;5027364;28;20128;-47
2023/05/28 10:55:54;;;;;;;11.80;2.88;;;;;;;20.18;41.27;102100.50;5028828;28;20096;-49
2023/05/28 10:58:32;;;;;;;8.25;2.67;;;;;;;20.03;41.74;102099.47;5029007;28;20099;-44
2023/05/28 11:01:21;;;;;;;7.97;2.78;;;;;;;20.13;41.96;102098.00;5028942;28;20045;-44
2023/05/28 11:03:54;;;;;;;9.27;2.85;;;;;;;20.31;41.65;102093.50;5009058;28;20037;-44
2023/05/28 11:06:25;;;;;;;17.13;4.45;;;;;;;20.46;41.74;102100.97;4975015;28;20052;-45
2023/05/28 11:08:52;;;;;;;10.20;2.58;;;;;;;20.54;41.43;102094.28;4991455;28;20396;-45
2023/05/28 11:11:19;;;;;;;13.77;3.13;;;;;;;20.57;40.65;102085.06;5007616;28;20052;-45
2023/05/28 11:13:47;;;;;;;10.45;2.67;;;;;;;20.47;40.65;102080.09;5008774;28;20385;-45
2023/05/28 11:16:16;;;;;;;9.73;3.05;;;;;;;20.34;40.62;102084.31;5009080;28;20549;-44
2023/05/28 11:19:08;;;;;;;67.97;14.30;;;;;;;20.16;41.30;102086.00;5008587;28;20053;-45
2023/05/28 11:21:57;;;;;;;10.95;2.72;;;;;;;19.97;41.52;102089.72;5007943;28;20073;-48
2023/05/28 11:24:24;;;;;;;16.50;3.58;;;;;;;19.83;41.79;102089.50;5008786;28;20381;-44
2023/05/28 11:26:54;;;;;;;15.68;3.35;;;;;;;19.76;41.67;102087.38;5008677;28;20060;-44